Worthington, Kentucky
Current Conditions -  °F | °C
As of 7:15 PM on Friday 28 Nov 2014 (Local Time) from KDWU Reporting Station
Clear Clear  
Wind Chill: 25°   Ceiling: Unl
Heat Index: 30°   Visibility: 10mi
Dew Point: 16°   Wind: 5mph
Humidity: 55%   Direction: 160°SSE
Pressure: 30.22"   Gusts: NA
Location:  38.55°N, 82.72°W
Report Text: KDWU 290015Z AUTO 16004KT 10SM CLR M01/M09 A3022 RMK AO1
Loading
Personal Weather Stations






























Interactive Weather Map New forecast layout! Learn more

10-Day Weather Forecast

Advertisements
Track Severe Weather on mobile